Aviation Digital Data Service (ADDS)

Output produced by METARs form (0653 UTC 24 March 2019)
found at http://www.aviationweather.gov/metar/data/
 
YPAD 240630Z 28016KT 9999 SCT040 BKN054 22/15 Q1006 FM0900 27024G45KT 9999 -SHRA BKN025
TAF YPAD 240532Z 2406/2512 29020G32KT 9999 -SHRA BKN025 
     FM240900 27024G38KT 9999 -SHRA BKN025 
     FM241600 25020G32KT 9999 -SHRA SCT040 
     FM250200 24020KT 9999 SCT040 
     FM250700 22012KT 9999 SCT040 INTER 2409/2415 5000 SHRA BKN015
       
YABA 240600Z AUTO 19011KT 9999 // OVC037 16/07 Q1021
YMAY 240600Z AUTO 35012KT 9999 // BKN077 26/16 Q1008
YBAS 240630Z AUTO 07013KT 9999 // OVC110 34/15 Q1007 RF00.0/000.0
TAF YBAS 240504Z 2406/2506 07012KT CAVOK 
     FM241800 12010KT 9999 SCT020 
     FM242300 15018G28KT 9999 SCT040 
     PROB30 
     TEMPO 2406/2412 VRB25G40KT 2000 TSRA SCT030 SCT070CB
       
YAMB 240630Z AUTO 04010KT 9999 // NCD 35/22 Q1010
TAF YAMB 240504Z 2406/2424 04012KT CAVOK 
     FM241200 VRB05KT 9999 FEW015 
     FM241600 VRB03KT 9999 MIFG SCT015 
     FM242100 35006KT 9999 FEW020
       
YARG 240600Z AUTO 26006KT 9999 // SCT068 38/19 Q1004
YMAV 240630Z AUTO 35024KT 9999 // NCD 29/12 Q1001 RF00.0/000.0
TAF AMD YMAV 240527Z 2406/2506 34020G32KT CAVOK 
     FM241200 31018G32KT 9999 -SHRA SCT040 
     FM242300 28026G40KT 9999 -SHRA NSC 
     PROB30 INTER 2407/2414 VRB30G48KT 3000 TSRA BKN018 FEW050CB
       
YAYE 240600Z AUTO 05006KT 340V090 9999 // NCD 38/09 Q1006
YBNA 240600Z AUTO 02012KT 9999 // NCD 31/20 Q1010
YBWX 240600Z AUTO 16012KT //// // ////// 31/22 Q0999
YBDV 240600Z AUTO 01010KT 350V070 //// // ////// 38/17 Q1005
YBBN 240630Z 03015KT 9999 FEW030 28/24 Q1012 NOSIG
TAF YBBN 240503Z 2406/2512 03014KT CAVOK 
     FM241200 33007KT 9999 FEW018 
     FM241600 33007KT 9999 SCT018 
     FM250100 03011KT CAVOK 
     FM251100 02008KT 9999 FEW018
       
YBHI 240600Z AUTO 28015KT 9999 // SCT068 OVC082 21/17 Q1011
YBRM 240630Z AUTO 33014KT 9999 // NCD 32/24 Q1004 RF00.0/000.0
TAF YBRM 240505Z 2406/2506 33018KT 9999 -SHRA SCT025 
     FM241000 35014KT 9999 -SHRA SCT025 
     FM241500 36014KT 9999 -SHRA BKN010 
     FM250000 34014KT 9999 -SHRA SCT020 
     PROB30 
     TEMPO 2406/2506 VRB25G40KT 2000 TSRA BKN010 SCT040CB
       
YBUD 240600Z AUTO 03010KT 9999 // NCD 31/17 Q1012
YBCS 240630Z AUTO 11009KT 9999 // SCT030 30/24 Q1010 RMK RF00.0/000.2 NOSIG
TAF AMD YBCS 240601Z 2407/2506 08010KT 9999 FEW028 
     FM240900 16008KT 9999 -SHRA SCT025 SCT040 
     FM250200 04010KT 9999 FEW028 INTER 2412/2424 4000 SHRA BKN015
       
YSCB 240630Z AUTO 31014KT 9999 // SCT100 24/13 Q1012 RF00.0/000.0 USE TAF FOR ARRIVALS.
TAF YSCB 240545Z 2406/2506 31015KT 9999 BKN070 
     BECMG 2409/2411 30013KT 9999 -RA BKN020 
     FM250000 30015G25KT 9999 -RA BKN020 
     BECMG 2503/2505 30018G28KT 9999 -RA BKN030 
     TEMPO 2410/2503 4000 RA BKN018
       
YCAR 240600Z AUTO 19019KT 9999 // NCD 32/23 Q1004
YCAS 240600Z AUTO 02007KT //// // ////// 35/18 Q1009
YCDU 240600Z AUTO 25016KT 9999 // OVC052 22/15 Q1010
YBCV 240600Z AUTO 36013KT 310V010 9999 // NCD 37/09 Q1010
YCCY 240600Z AUTO 02013KT 9999 // SCT046 BKN056 33/20 Q1008
YCBA 240600Z AUTO 09007KT 9999 // SCT105 32/12 Q1010
YCBP 240600Z AUTO 10014KT 9999 // BKN120 31/13 Q1008
YBCG 240630Z AUTO 35013KT 9999 // NCD 28/24 Q1011 RF00.0/000.0
TAF YBCG 240503Z 2406/2506 01014KT CAVOK 
     FM241000 34010KT 9999 FEW018 
     FM242200 35014KT CAVOK
       
YCOM 240600Z AUTO 31010KT 9999 // BKN056 22/11 Q1012
YCBB 240600Z AUTO 27010KT 9999 // BKN115 30/11 Q1013
YCNM 240600Z AUTO 23007KT 190V310 //// // ////// 34/14 Q1009
YCIN 240630Z AUTO 35010KT 9999 // NCD 32/23 Q1004 RF00.0/000.0
TAF YCIN 240033Z 2402/2414 33012KT 9999 -SHRA SCT040 
     PROB30 INTER 2404/2414 VRB25G45KT 2000 TSRA BKN015 FEW050CB
       
YPDN 240630Z 27007KT 8000 -RA FEW010 SCT085 BKN130 25/23 Q1007 RESHRA FM0800 29010KT 9999 SCT020 INTER 0645/0730 6000 SHRA SCT010
TAF AMD YPDN 240515Z 2406/2512 29012KT 9999 SCT020 
     FM240900 29008KT 9999 FEW020 
     FM250200 27014KT 9999 SCT025 
     PROB30 
     TEMPO 2406/2411 VRB20G35KT 1000 TSRA BKN010 SCT020CB 
     PROB30 
     TEMPO 2417/2422 VRB20G35KT 1000 TSRA BKN010 SCT020CB 
     PROB30 
     TEMPO 2504/2511 VRB20G35KT 1000 TSRA BKN010 SCT020CB
       
YDBY 240600Z AUTO 34016KT //// // NCD 32/25 Q1004
YSDU 240630Z AUTO 15009KT 9999 // OVC115 29/15 Q1011 RF00.0/000.0
TAF AMD YSDU 240609Z 2406/2424 20010KT CAVOK 
     FM241200 12010KT 9999 SCT090 
     FM241800 13010KT 9999 -RA SCT080 
     PROB30 
     TEMPO 2418/2424 VRB25G35KT 3000 TSRA BKN010 SCT060CB
       
YEML 240600Z AUTO 06009KT 9999 // NCD 33/16 Q1011
YESP 240600Z AUTO 20018G28KT 9999 // BKN040 OVC046 18/08 Q1018
YFRT 240630Z AUTO 22016G26KT 9999 // ////// 27/08 Q1012 RF00.0/000.0
TAF YFRT 240034Z 2402/2414 22012KT CAVOK 
     FM241000 18018KT 9999 SCT025
       
YGEL 240630Z AUTO 19023KT 9999 // NCD 28/15 Q1011 RF00.0/000.0
TAF AMD YGEL 240556Z 2406/2424 18020KT CAVOK 
     FM241300 14014KT CAVOK 
     FM242000 11010KT CAVOK
       
YGLA 240630Z AUTO 05010KT 9999 // NCD 29/21 Q1013 RF00.0/000.0
TAF YGLA 240522Z 2406/2418 07013KT CAVOK 
     FM241000 09005KT 9999 FEW020 
     FM241300 21005KT 9999 FEW020 SCT030
       
YPGV 240630Z AUTO 34010KT 9999 // NCD 28/24 Q1007 RF00.0/014.4
TAF YPGV 240114Z 2402/2414 31014KT 9999 -SHRA SCT020 
     TEMPO 2402/2414 VRB20G40KT 0500 TSRA BKN005 SCT015CB
       
YGFN 240600Z AUTO 03009KT 9999 // NCD 36/18 Q1009
YGTH 240600Z AUTO 34012KT 9999 -SHRA OVC100 26/17 Q1010
YGTE 240600Z AUTO 36010KT 9999 // SCT037 34/25 Q1004
YBHM 240643Z AUTO 10015KT 9999 // BKN020 28/24 Q1012 RF00.0/000.0
TAF YBHM 240511Z 2406/2418 11014KT 9999 SCT018 SCT030
       
YMHB 240630Z 35013KT 9999 FEW045 SCT075 24/05 Q0999 RF00.0/000.0
TAF AMD YMHB 240503Z 2405/2506 07014KT CAVOK 
     FM240800 01014KT 9999 SCT045 
     FM241200 01018G30KT 9999 -SHRA BKN025 
     FM241600 34020G35KT 9999 -SHRA BKN025 
     FM242100 32018G30KT 9999 -SHRA BKN030
       
YHID 240630Z AUTO 36005KT 9999 // NCD 29/24 Q1009
TAF YHID 240501Z 2406/2506 34008KT 9999 SCT020 INTER 2418/2424 4000 SHRA BKN012
       
YHUG 240600Z AUTO 05008KT 9999 // NCD 33/17 Q1010
YPKG 240630Z AUTO 15011KT 9999 // NCD 25/07 Q1015 RF00.0/000.0
TAF YPKG 240506Z 2406/2506 16010KT CAVOK 
     FM242000 12010KT CAVOK
       
YKRY 240600Z AUTO 04005KT 010V070 9999 // SCT099 33/12 Q1014
YPKU 240630Z AUTO 23008KT 9999 // NCD 36/21 Q1003 RF00.0/000.0
TAF YPKU 240033Z 2402/2414 26008KT CAVOK 
     FM240900 30007KT CAVOK 
     PROB30 INTER 2404/2409 VRB25G40KT 3000 TSRA BKN010 FEW080CB
       
YMLT 240630Z AUTO 33016KT 9999 // BKN028 BKN036 BKN053 18/13 Q1002
TAF YMLT 240511Z 2406/2506 33015G25KT 9999 -SHRA BKN025 
     FM240900 36015G25KT 9999 -SHRA SCT015 BKN025 
     FM241200 02015G25KT 9999 -SHRA BKN025 
     FM241500 32018G30KT 9999 SHRA SCT015 BKN020 
     FM241800 32015G35KT 9999 SHRA SCT030 INTER 2414/2418 4000 SHRA BKN010
       
YPLM 240630Z AUTO 13018KT //// // NCD 38/12 Q1001 RF00.0/000.0 PRESENT WEATHER SENSOR US
TAF AMD YPLM 240641Z 2406/2506 14018G28KT CAVOK
       
YLEC 240600Z AUTO 19013KT //// // ////// 20/19 Q1012
YLIS 240600Z AUTO 04009KT 9999 // NCD 34/23 Q1009
YLRE 240600Z AUTO 05007KT 9999 // SCT078 37/17 Q1008
YBMK 240600Z AUTO 10012KT 9999 // SCT022 29/23 Q1012
YMEK 240600Z AUTO 11014KT 9999 // NCD 33/12 Q1010
YMEN 240607Z AUTO 35018G28KT 9999 // SCT056 27/14 Q1003
YMML 240638Z 36019G29KT 9999 FEW055CB BKN260 27/13 Q1003 INTER 0700/0938 VRB30G45KT 5000 -TSRA SCT025 SCT050CB FM0638 MOD TURB BLW 5000FT TILL 0800 FM0800 MOD/SEV TURB BLW 5000FT
TAF AMD YMML 240519Z 2406/2512 35022G35KT CAVOK 
     FM241200 32015G25KT 9999 FEW030 BKN060 
     FM241700 29015G25KT CAVOK 
     FM242300 28020G34KT 9999 -SHRA NSC 
     FM251000 28012KT CAVOK 
     PROB30 INTER 2408/2414 VRB30G48KT 3000 TSRA BKN018 FEW050CB
       
YMER 240600Z AUTO 05007KT 9999 // NCD 23/17 Q1008
YMIA 240600Z AUTO 34012KT 9999 // NCD 23/19 Q1007
YMOR 240600Z AUTO 36009KT 9999 // NCD 36/12 Q1010
YMTG 240600Z AUTO 33018KT 9999 // SCT066 BKN075 OVC092 23/13 Q1001
YBMA 240630Z AUTO 04016KT 9999 // SCT037 BKN045 30/21 Q1008
TAF YBMA 232220Z 2400/2412 04014KT 9999 BKN020 
     FM240200 03015G25KT 9999 -RA SCT030 BKN120 
     FM240800 04012KT 9999 -RA SCT025 BKN120 
     PROB30 
     TEMPO 2405/2412 VRB20G35KT 1000 TSRA BKN015 SCT040CB
       
YMDG 240600Z AUTO 20004KT 9999 -SHRA OVC110 28/18 Q1012
YNBR 240600Z AUTO 16004KT 9999 // NCD 35/13 Q1009
YNAR 240600Z AUTO 32012KT 9999 // SCT079 BKN100 26/16 Q1010
YNWN 240600Z AUTO 11012KT 9999 // NCD 31/11 Q1008
YNTN 240600Z AUTO 02005KT 320V070 9999 -SHRA SCT037 BKN050 OVC065 29/26 Q1008 RESHRA
YSNW 240600Z AUTO 01006KT 9999 // NCD 25/20 Q1008
YBOK 240600Z AUTO 15004KT 120V180 9999 // SCT086 BKN110 34/15 Q1013
YOLD 240600Z AUTO 35004KT 9999 // OVC125 22/21 Q1009
TAF AMD YOLD 240414Z 2404/2414 09010KT 9999 -RA NSC 
     FM240600 23010KT 9999 -RA NSC 
     FM240900 20010KT CAVOK 
     TEMPO 2404/2409 3000 RA SCT020 BKN080 
     PROB30 INTER 2404/2407 5000 TSRA BKN080CB
       
YPBO 240630Z AUTO 12023G33KT 9999 // NCD 33/11 Q1004
YPEA 240630Z AUTO 13008KT 050V170 9999 // NCD 29/03 Q1015
TAF YPEA 240439Z 2406/2424 14010KT CAVOK 
     FM240800 20012KT CAVOK 
     FM241400 11014G24KT CAVOK
       
YPPH 240630Z 26013KT CAVOK 26/11 Q1015 NOSIG
TAF YPPH 240504Z 2406/2512 14010KT CAVOK 
     FM240700 20012KT CAVOK 
     FM241400 11014G24KT CAVOK 
     FM250200 09014KT CAVOK
       
YPJT 240630Z AUTO 20010KT 180V280 9999 // NCD 26/13 Q1016 RF00.0/000.0
TAF YPJT 240439Z 2406/2424 20012KT CAVOK 
     FM241400 11014G24KT CAVOK
       
YPPD 240637Z AUTO 02037G49KT 8000 -SHRA SCT019 SCT026 BKN031 27/24 Q0994
TAF AMD YPPD 240533Z 2405/2506 02045G65KT 2000 RA SCT005 BKN018 
     FM241600 35035G50KT 1000 RA BKN005 
     TEMPO 2405/2416 02075G90KT 0200 TSRA BKN002 SCT015CB 
     TEMPO 2416/2506 36050G75KT 0200 TSRA BKN002 SCT015CB
       
YBPN 240600Z AUTO 10011KT 9999 // SCT025 29/24 Q1012
YSRI 240630Z AUTO 08004KT 040V110 9999 // BKN059 OVC074 OVC115 27/20 Q1009
TAF YSRI 240507Z 2406/2506 11006KT CAVOK 
     FM241000 VRB03KT 9999 -RA BKN100 
     FM242200 34010KT 9999 -RA BKN100 INTER 2418/2424 5000 RA BKN010 BKN060 
     PROB30 INTER 2406/2409 VRB30G45KT 4000 TSRA SCT020 BKN050CB 
     PROB30 2416/2421 0500 FG OVC002
       
YRMD 240600Z AUTO 03004KT 9999 // ////// 33/20 Q1009
YBRK 240630Z AUTO 05009KT 9999 // NCD 32/15 Q1012 RF00.0/000.0
TAF YBRK 240519Z 2406/2506 07010KT CAVOK 
     FM241000 VRB04KT 9999 FEW020 
     FM241500 13005KT 9999 SCT025 
     FM242300 09008KT 9999 SCT035 
     FM250200 07010KT CAVOK
       
YSSY 240630Z 16006KT 9999 VCSH NSC 26/19 Q1009 INTER 0630/0930 5000 TSRA FEW030 SCT045CB
TAF YSSY 240505Z 2406/2512 14012KT 9999 FEW030 
     FM241000 07008KT 9999 SCT020 
     FM241200 34005KT 9999 -RA FEW025 BKN080 
     FM242300 33015G25KT 9999 -RA FEW025 BKN080 
     PROB30 INTER 2406/2410 VRB35G45KT 5000 TSRA SCT015 BKN045CB
       
YSTW 240640Z AUTO 21007KT 9999 // SCT043 SCT067 SCT100 29/16 Q1010
TAF YSTW 240426Z 2406/2424 31015G25KT 9999 -RA SCT080 
     FM240800 02014KT 9999 -RA SCT090 
     PROB30 INTER 2406/2415 VRB20G35KT 5000 TSRA SCT030 FEW080CB
       
YTRE 240600Z AUTO 10009KT 9999 // NCD 31/20 Q1008
TAF YTRE 240044Z 2402/2414 09010KT CAVOK 
     FM241000 VRB03KT 9999 SCT010 
     PROB30 INTER 2404/2410 VRB30G45KT 2000 TSRA SCT020 SCT060CB
       
YTEF 240600Z AUTO 10005KT 050V160 9999 // NCD 34/18 Q1005
YTNK 240600Z AUTO 20016KT 9999 // SCT015 BKN020 OVC029 26/23 Q1001
TAF AMD YTNK 240434Z 2404/2414 20016G26KT 4000 RA OVC010 
     FM240800 24014KT 4000 RA OVC010 
     PROB30 
     TEMPO 2404/2414 VRB30G45KT 1000 TSRA BKN005 SCT015CB
       
YPTN 240630Z AUTO 32010KT 9999 // BKN040 BKN047 34/23 Q1004
TAF YPTN 240505Z 2406/2506 32012KT 9999 SCT040 
     FM241000 31008KT 9999 FEW030 
     FM241800 31006KT 9999 SCT020 
     FM242300 30012KT 9999 SCT040 
     PROB30 
     TEMPO 2406/2412 VRB25G40KT 1000 TSRA BKN010 SCT030CB
       
YBTL 240630Z AUTO 07014KT 9999 // NCD 29/24 Q1011
TAF YBTL 240505Z 2406/2506 06014KT 9999 SCT035 
     FM240900 11007KT 9999 SCT025 SCT040 
     FM241600 14006KT 9999 -SHRA SCT020 BKN040 
     FM250100 05014KT 9999 SCT035 INTER 2418/2423 4000 SHRA BKN015
       
YSWG 240600Z AUTO 33006KT 9999 // OVC115 26/15 Q1010
YWGT 240600Z AUTO 36012KT 9999 // SCT066 BKN077 OVC090 26/14 Q1007
TAF AMD YWGT 240552Z 2406/2414 35014KT 9999 -SHRA SCT035 BKN045 
     FM241200 33010KT 9999 -SHRA BKN020 
     PROB30 INTER 2406/2414 VRB25G45KT 3000 TSRA BKN015 SCT040CB
       
YBWP 240600Z AUTO 03007KT 9999 // SCT023 SCT046 BKN110 26/24 Q1009 RESHRA
YWHA 240600Z AUTO 32018KT 9999 // SCT052 28/16 Q1006
YWLM 240630Z AUTO 13010KT 9999 // NCD 27/21 Q1009
TAF YWLM 240507Z 2406/2506 15008KT CAVOK 
     FM241300 VRB03KT 9999 -RA SCT090 
     FM242200 30012KT 9999 -RA SCT090 
     PROB30 INTER 2406/2410 VRB30G45KT 2000 TSRA SCT020 SCT060CB 
     PROB30 2415/2422 0500 FG OVC002
       
YPWR 240630Z AUTO 33010KT 9999 // NCD 23/18 Q1009 RF00.0/006.4
TAF YPWR 240520Z 2406/2424 32010KT CAVOK 
     FM240800 25010KT CAVOK 
     FM241200 22010KT 9999 SCT025